sensor_id;sensor_type;location;lat;lon;timestamp;pressure;altitude;pressure_sealevel;temperature;humidity
71299;BME280;59083;47.974;21.722;2022-08-19T00:01:46;100002.81;;;22.50;66.34
71299;BME280;59083;47.974;21.722;2022-08-19T00:04:48;99997.38;;;22.50;66.45
71299;BME280;59083;47.974;21.722;2022-08-19T00:07:53;100000.41;;;22.43;66.53
71299;BME280;59083;47.974;21.722;2022-08-19T00:10:54;99999.88;;;22.31;67.31
71299;BME280;59083;47.974;21.722;2022-08-19T00:13:56;100003.13;;;22.33;67.69
71299;BME280;59083;47.974;21.722;2022-08-19T00:16:57;99996.62;;;22.29;67.59
71299;BME280;59083;47.974;21.722;2022-08-19T00:19:58;99996.88;;;22.22;67.85
71299;BME280;59083;47.974;21.722;2022-08-19T00:23:00;100007.50;;;22.14;68.45
71299;BME280;59083;47.974;21.722;2022-08-19T00:26:03;100000.19;;;22.09;68.42
71299;BME280;59083;47.974;21.722;2022-08-19T00:29:06;100003.72;;;22.10;68.30
71299;BME280;59083;47.974;21.722;2022-08-19T00:32:08;99994.47;;;22.01;68.38
71299;BME280;59083;47.974;21.722;2022-08-19T00:35:10;100003.41;;;21.86;68.67
71299;BME280;59083;47.974;21.722;2022-08-19T00:38:11;99997.69;;;21.82;68.99
71299;BME280;59083;47.974;21.722;2022-08-19T00:41:15;100003.66;;;21.79;68.85
71299;BME280;59083;47.974;21.722;2022-08-19T00:44:22;99998.25;;;21.69;69.67
71299;BME280;59083;47.974;21.722;2022-08-19T00:47:23;99999.84;;;21.70;69.61
71299;BME280;59083;47.974;21.722;2022-08-19T00:50:25;100000.41;;;21.67;70.05
71299;BME280;59083;47.974;21.722;2022-08-19T00:53:28;100006.91;;;21.61;70.22
71299;BME280;59083;47.974;21.722;2022-08-19T00:56:31;100004.44;;;21.55;70.39
71299;BME280;59083;47.974;21.722;2022-08-19T00:59:35;100000.91;;;21.54;70.76
71299;BME280;59083;47.974;21.722;2022-08-19T01:02:40;100014.47;;;21.49;70.70
71299;BME280;59083;47.974;21.722;2022-08-19T01:05:43;100020.47;;;21.56;70.73
71299;BME280;59083;47.974;21.722;2022-08-19T01:08:45;100021.03;;;21.63;70.20
71299;BME280;59083;47.974;21.722;2022-08-19T01:11:47;100026.44;;;21.63;70.49
71299;BME280;59083;47.974;21.722;2022-08-19T01:14:49;100026.97;;;21.60;70.72
71299;BME280;59083;47.974;21.722;2022-08-19T01:17:51;100030.22;;;21.62;70.64
71299;BME280;59083;47.974;21.722;2022-08-19T01:21:02;100023.72;;;21.58;71.00
71299;BME280;59083;47.974;21.722;2022-08-19T01:24:04;100017.22;;;21.64;71.07
71299;BME280;59083;47.974;21.722;2022-08-19T01:27:06;100020.47;;;21.56;70.91
71299;BME280;59083;47.974;21.722;2022-08-19T01:30:10;100022.06;;;21.47;71.24
71299;BME280;59083;47.974;21.722;2022-08-19T01:33:12;100026.13;;;21.39;71.64
71299;BME280;59083;47.974;21.722;2022-08-19T01:39:39;100032.59;;;21.33;71.95
71299;BME280;59083;47.974;21.722;2022-08-19T01:42:41;100031.78;;;21.28;72.29
71299;BME280;59083;47.974;21.722;2022-08-19T01:45:42;100028.75;;;21.19;72.79
71299;BME280;59083;47.974;21.722;2022-08-19T01:48:44;100032.81;;;21.17;72.45
71299;BME280;59083;47.974;21.722;2022-08-19T01:51:47;100029.25;;;21.11;72.74
71299;BME280;59083;47.974;21.722;2022-08-19T01:54:49;100027.81;;;20.93;74.23
71299;BME280;59083;47.974;21.722;2022-08-19T01:57:55;100031.09;;;20.95;73.95
71299;BME280;59083;47.974;21.722;2022-08-19T02:00:58;100023.47;;;20.97;74.46
71299;BME280;59083;47.974;21.722;2022-08-19T02:04:00;100033.22;;;20.93;74.68
71299;BME280;59083;47.974;21.722;2022-08-19T02:07:04;100029.97;;;20.91;74.68
71299;BME280;59083;47.974;21.722;2022-08-19T02:10:09;100039.69;;;20.87;74.44
71299;BME280;59083;47.974;21.722;2022-08-19T02:13:12;100031.81;;;20.81;74.80
71299;BME280;59083;47.974;21.722;2022-08-19T02:16:16;100025.03;;;20.78;75.03
71299;BME280;59083;47.974;21.722;2022-08-19T02:19:17;100017.41;;;20.75;74.98
71299;BME280;59083;47.974;21.722;2022-08-19T02:22:18;100021.19;;;20.69;75.72
71299;BME280;59083;47.974;21.722;2022-08-19T02:25:20;100017.94;;;20.67;75.76
71299;BME280;59083;47.974;21.722;2022-08-19T02:28:21;100009.22;;;20.60;75.99
71299;BME280;59083;47.974;21.722;2022-08-19T02:31:24;100016.78;;;20.58;76.32
71299;BME280;59083;47.974;21.722;2022-08-19T02:34:26;100014.59;;;20.50;76.55
71299;BME280;59083;47.974;21.722;2022-08-19T02:37:27;100003.22;;;20.53;76.11
71299;BME280;59083;47.974;21.722;2022-08-19T02:40:58;100008.38;;;20.54;76.05
71299;BME280;59083;47.974;21.722;2022-08-19T02:44:02;100005.38;;;20.51;76.30
71299;BME280;59083;47.974;21.722;2022-08-19T02:47:05;99996.97;;;20.47;76.86
71299;BME280;59083;47.974;21.722;2022-08-19T02:50:06;100002.59;;;20.41;77.25
71299;BME280;59083;47.974;21.722;2022-08-19T02:53:08;100000.94;;;20.35;77.31
71299;BME280;59083;47.974;21.722;2022-08-19T02:56:09;99992.03;;;20.39;77.32
71299;BME280;59083;47.974;21.722;2022-08-19T02:59:10;99991.75;;;20.36;77.46
71299;BME280;59083;47.974;21.722;2022-08-19T03:02:12;99988.41;;;20.29;77.71
71299;BME280;59083;47.974;21.722;2022-08-19T03:05:13;99986.50;;;20.24;77.62
71299;BME280;59083;47.974;21.722;2022-08-19T03:08:15;99983.00;;;20.29;77.98
71299;BME280;59083;47.974;21.722;2022-08-19T03:11:23;99990.03;;;20.30;77.98
71299;BME280;59083;47.974;21.722;2022-08-19T03:14:24;99985.87;;;20.17;78.55
71299;BME280;59083;47.974;21.722;2022-08-19T03:17:26;99982.03;;;20.08;78.79
71299;BME280;59083;47.974;21.722;2022-08-19T03:20:27;99985.53;;;20.03;78.83
71299;BME280;59083;47.974;21.722;2022-08-19T03:23:28;99988.72;;;19.95;79.27
71299;BME280;59083;47.974;21.722;2022-08-19T03:26:29;99988.72;;;19.95;79.31
71299;BME280;59083;47.974;21.722;2022-08-19T03:29:32;99986.56;;;19.97;79.46
71299;BME280;59083;47.974;21.722;2022-08-19T03:32:33;99987.19;;;20.04;78.89
71299;BME280;59083;47.974;21.722;2022-08-19T03:35:35;100000.13;;;20.02;79.49
71299;BME280;59083;47.974;21.722;2022-08-19T03:38:51;99999.31;;;20.02;79.62
71299;BME280;59083;47.974;21.722;2022-08-19T03:41:53;100016.06;;;19.99;79.36
71299;BME280;59083;47.974;21.722;2022-08-19T03:44:57;100014.94;;;19.95;79.82
71299;BME280;59083;47.974;21.722;2022-08-19T03:47:59;100019.53;;;19.94;80.07
71299;BME280;59083;47.974;21.722;2022-08-19T03:51:01;100036.03;;;19.93;80.18
71299;BME280;59083;47.974;21.722;2022-08-19T03:54:08;100049.44;;;20.09;79.58
71299;BME280;59083;47.974;21.722;2022-08-19T03:57:10;100038.97;;;20.23;79.07
71299;BME280;59083;47.974;21.722;2022-08-19T04:00:12;100035.41;;;20.17;79.36
71299;BME280;59083;47.974;21.722;2022-08-19T04:03:14;100022.88;;;20.06;79.75
71299;BME280;59083;47.974;21.722;2022-08-19T04:06:20;100033.56;;;20.23;79.09
71299;BME280;59083;47.974;21.722;2022-08-19T04:09:23;100031.91;;;20.49;78.02
71299;BME280;59083;47.974;21.722;2022-08-19T04:12:24;100029.38;;;20.37;78.77
71299;BME280;59083;47.974;21.722;2022-08-19T04:15:26;100028.13;;;20.50;77.87
71299;BME280;59083;47.974;21.722;2022-08-19T04:18:29;100034.63;;;20.54;77.87
71299;BME280;59083;47.974;21.722;2022-08-19T04:21:32;100043.25;;;20.51;77.98
71299;BME280;59083;47.974;21.722;2022-08-19T04:24:34;100056.91;;;20.61;77.68
71299;BME280;59083;47.974;21.722;2022-08-19T04:27:36;100068.34;;;20.73;77.34
71299;BME280;59083;47.974;21.722;2022-08-19T04:30:39;100090.97;;;20.99;76.44
71299;BME280;59083;47.974;21.722;2022-08-19T04:33:40;100091.47;;;21.48;74.43
71299;BME280;59083;47.974;21.722;2022-08-19T04:36:43;100096.53;;;22.12;72.51
71299;BME280;59083;47.974;21.722;2022-08-19T04:39:45;100101.97;;;22.47;70.40
71299;BME280;59083;47.974;21.722;2022-08-19T04:43:05;100098.53;;;23.31;67.81
71299;BME280;59083;47.974;21.722;2022-08-19T04:46:11;100100.69;;;23.44;66.62
71299;BME280;59083;47.974;21.722;2022-08-19T04:49:14;100093.38;;;23.89;65.08
71299;BME280;59083;47.974;21.722;2022-08-19T04:52:17;100101.94;;;24.11;64.26
71299;BME280;59083;47.974;21.722;2022-08-19T04:55:18;100108.22;;;24.07;63.86
71299;BME280;59083;47.974;21.722;2022-08-19T04:58:20;100096.12;;;24.57;62.14
71299;BME280;59083;47.974;21.722;2022-08-19T05:01:26;100095.00;;;25.16;60.04
71299;BME280;59083;47.974;21.722;2022-08-19T05:04:29;100101.91;;;25.32;59.54
71299;BME280;59083;47.974;21.722;2022-08-19T05:07:32;100101.91;;;25.32;59.54
71299;BME280;59083;47.974;21.722;2022-08-19T05:10:39;100090.34;;;25.82;57.86
71299;BME280;59083;47.974;21.722;2022-08-19T05:13:42;100087.22;;;26.08;57.42
71299;BME280;59083;47.974;21.722;2022-08-19T05:16:44;100074.94;;;26.43;56.36
71299;BME280;59083;47.974;21.722;2022-08-19T05:19:45;100069.72;;;26.27;56.63
71299;BME280;59083;47.974;21.722;2022-08-19T05:23:05;100064.88;;;26.38;56.37
71299;BME280;59083;47.974;21.722;2022-08-19T05:26:07;100085.59;;;26.71;55.46
71299;BME280;59083;47.974;21.722;2022-08-19T05:29:10;100092.94;;;26.76;54.74
71299;BME280;59083;47.974;21.722;2022-08-19T05:32:11;100095.72;;;26.57;55.03
71299;BME280;59083;47.974;21.722;2022-08-19T05:35:13;100086.91;;;26.93;53.77
71299;BME280;59083;47.974;21.722;2022-08-19T05:38:15;100089.53;;;26.98;53.49
71299;BME280;59083;47.974;21.722;2022-08-19T05:41:17;100089.22;;;27.13;53.38
71299;BME280;59083;47.974;21.722;2022-08-19T05:44:18;100092.59;;;27.51;52.25
71299;BME280;59083;47.974;21.722;2022-08-19T05:47:22;100085.75;;;27.98;51.45
71299;BME280;59083;47.974;21.722;2022-08-19T05:50:24;100081.19;;;27.71;51.66
71299;BME280;59083;47.974;21.722;2022-08-19T05:53:29;100100.63;;;28.72;49.26
71299;BME280;59083;47.974;21.722;2022-08-19T05:56:30;100106.78;;;29.00;48.63
71299;BME280;59083;47.974;21.722;2022-08-19T05:59:32;100101.87;;;28.35;49.69
71299;BME280;59083;47.974;21.722;2022-08-19T06:02:35;100115.47;;;28.41;49.07
71299;BME280;59083;47.974;21.722;2022-08-19T06:05:36;100116.03;;;28.82;47.87
71299;BME280;59083;47.974;21.722;2022-08-19T06:08:38;100112.75;;;29.02;47.62
71299;BME280;59083;47.974;21.722;2022-08-19T06:11:46;100119.13;;;29.60;46.22
71299;BME280;59083;47.974;21.722;2022-08-19T06:14:47;100123.00;;;29.67;45.90
71299;BME280;59083;47.974;21.722;2022-08-19T06:17:51;100109.00;;;29.94;45.60
71299;BME280;59083;47.974;21.722;2022-08-19T06:20:52;100110.56;;;29.61;45.61
71299;BME280;59083;47.974;21.722;2022-08-19T06:23:55;100093.91;;;30.61;43.97
71299;BME280;59083;47.974;21.722;2022-08-19T06:26:57;100088.06;;;30.62;44.18
71299;BME280;59083;47.974;21.722;2022-08-19T06:30:00;100086.09;;;30.80;43.80
71299;BME280;59083;47.974;21.722;2022-08-19T06:33:01;100083.19;;;30.68;43.85
71299;BME280;59083;47.974;21.722;2022-08-19T06:36:03;100086.47;;;31.08;43.36
71299;BME280;59083;47.974;21.722;2022-08-19T06:39:09;100074.06;;;31.52;42.36
71299;BME280;59083;47.974;21.722;2022-08-19T06:42:12;100076.53;;;31.95;41.73
71299;BME280;59083;47.974;21.722;2022-08-19T06:45:14;100086.75;;;32.15;40.85
71299;BME280;59083;47.974;21.722;2022-08-19T06:48:15;100082.62;;;31.80;41.52
71299;BME280;59083;47.974;21.722;2022-08-19T06:51:17;100087.56;;;31.95;41.60
71299;BME280;59083;47.974;21.722;2022-08-19T06:54:19;100091.69;;;32.42;40.48
71299;BME280;59083;47.974;21.722;2022-08-19T06:57:21;100096.56;;;33.15;38.79
71299;BME280;59083;47.974;21.722;2022-08-19T07:00:22;100107.59;;;32.58;39.16
71299;BME280;59083;47.974;21.722;2022-08-19T07:03:23;100106.62;;;32.87;38.78
71299;BME280;59083;47.974;21.722;2022-08-19T07:06:25;100122.56;;;33.62;37.36
71299;BME280;59083;47.974;21.722;2022-08-19T07:09:26;100111.66;;;33.30;37.69
71299;BME280;59083;47.974;21.722;2022-08-19T07:12:29;100108.59;;;32.98;37.90
71299;BME280;59083;47.974;21.722;2022-08-19T07:15:33;100109.66;;;33.06;38.18
71299;BME280;59083;47.974;21.722;2022-08-19T07:18:38;100113.69;;;33.57;37.71
71299;BME280;59083;47.974;21.722;2022-08-19T07:21:40;100110.00;;;33.65;37.34
71299;BME280;59083;47.974;21.722;2022-08-19T07:24:42;100117.28;;;34.22;36.36
71299;BME280;59083;47.974;21.722;2022-08-19T07:27:43;100116.81;;;34.20;36.40
71299;BME280;59083;47.974;21.722;2022-08-19T07:30:45;100115.94;;;34.03;35.87
71299;BME280;59083;47.974;21.722;2022-08-19T07:33:48;100110.19;;;33.96;36.92
71299;BME280;59083;47.974;21.722;2022-08-19T07:36:50;100110.12;;;34.21;36.39
71299;BME280;59083;47.974;21.722;2022-08-19T07:39:51;100106.44;;;33.77;36.63
71299;BME280;59083;47.974;21.722;2022-08-19T07:42:52;100107.88;;;33.98;36.49
71299;BME280;59083;47.974;21.722;2022-08-19T07:45:54;100107.69;;;33.67;36.55
71299;BME280;59083;47.974;21.722;2022-08-19T07:48:57;100107.66;;;33.91;36.63
71299;BME280;59083;47.974;21.722;2022-08-19T07:52:06;100112.09;;;34.08;36.38
71299;BME280;59083;47.974;21.722;2022-08-19T07:55:09;100120.97;;;34.14;36.15
71299;BME280;59083;47.974;21.722;2022-08-19T07:58:14;100114.75;;;34.17;36.68
71299;BME280;59083;47.974;21.722;2022-08-19T08:01:19;100111.19;;;34.44;36.09
71299;BME280;59083;47.974;21.722;2022-08-19T08:04:21;100109.41;;;34.79;35.59
71299;BME280;59083;47.974;21.722;2022-08-19T08:07:41;100120.69;;;34.31;36.46
71299;BME280;59083;47.974;21.722;2022-08-19T08:11:01;100117.16;;;34.74;35.65
71299;BME280;59083;47.974;21.722;2022-08-19T08:14:02;100112.59;;;34.81;35.22
71299;BME280;59083;47.974;21.722;2022-08-19T08:17:05;100108.37;;;35.03;34.36
71299;BME280;59083;47.974;21.722;2022-08-19T08:20:07;100099.41;;;34.07;36.54
71299;BME280;59083;47.974;21.722;2022-08-19T08:23:08;100101.47;;;34.50;36.08
71299;BME280;59083;47.974;21.722;2022-08-19T08:26:29;100103.56;;;34.41;36.26
71299;BME280;59083;47.974;21.722;2022-08-19T08:29:30;100111.50;;;34.15;36.06
71299;BME280;59083;47.974;21.722;2022-08-19T08:32:32;100105.50;;;34.25;36.68
71299;BME280;59083;47.974;21.722;2022-08-19T08:35:33;100102.22;;;33.95;37.06
71299;BME280;59083;47.974;21.722;2022-08-19T08:38:35;100117.28;;;33.70;37.44
71299;BME280;59083;47.974;21.722;2022-08-19T08:48:02;100108.31;;;33.36;37.79
71299;BME280;59083;47.974;21.722;2022-08-19T08:51:12;100099.19;;;32.99;38.57
71299;BME280;59083;47.974;21.722;2022-08-19T08:54:20;100091.47;;;32.80;39.00
71299;BME280;59083;47.974;21.722;2022-08-19T09:00:49;100088.22;;;32.78;39.14
71299;BME280;59083;47.974;21.722;2022-08-19T09:03:51;100084.53;;;32.29;40.10
71299;BME280;59083;47.974;21.722;2022-08-19T09:07:16;100084.75;;;32.36;40.33
71299;BME280;59083;47.974;21.722;2022-08-19T09:10:27;100077.28;;;32.82;40.06
71299;BME280;59083;47.974;21.722;2022-08-19T09:16:49;100076.28;;;32.74;39.27
71299;BME280;59083;47.974;21.722;2022-08-19T09:19:56;100072.91;;;32.24;40.23
71299;BME280;59083;47.974;21.722;2022-08-19T09:22:58;100073.19;;;32.55;39.44
71299;BME280;59083;47.974;21.722;2022-08-19T09:25:59;100071.25;;;32.56;39.55
71299;BME280;59083;47.974;21.722;2022-08-19T09:29:01;100066.50;;;32.44;39.85
71299;BME280;59083;47.974;21.722;2022-08-19T09:32:06;100059.59;;;32.95;39.11
71299;BME280;59083;47.974;21.722;2022-08-19T09:35:07;100059.19;;;32.60;39.60
71299;BME280;59083;47.974;21.722;2022-08-19T09:38:08;100055.13;;;32.46;39.71
71299;BME280;59083;47.974;21.722;2022-08-19T09:41:13;100060.97;;;32.89;38.79
71299;BME280;59083;47.974;21.722;2022-08-19T09:44:15;100060.03;;;33.09;38.25
71299;BME280;59083;47.974;21.722;2022-08-19T09:47:16;100058.88;;;32.98;38.53
71299;BME280;59083;47.974;21.722;2022-08-19T09:50:18;100059.81;;;32.90;37.34
71299;BME280;59083;47.974;21.722;2022-08-19T09:53:19;100058.81;;;33.19;36.23
71299;BME280;59083;47.974;21.722;2022-08-19T09:56:24;100051.09;;;33.25;35.94
71299;BME280;59083;47.974;21.722;2022-08-19T09:59:25;100057.75;;;33.11;35.90
71299;BME280;59083;47.974;21.722;2022-08-19T10:02:27;100063.03;;;33.04;35.23
71299;BME280;59083;47.974;21.722;2022-08-19T10:05:28;100054.50;;;33.09;35.47
71299;BME280;59083;47.974;21.722;2022-08-19T10:08:48;100051.53;;;33.39;35.16
71299;BME280;59083;47.974;21.722;2022-08-19T10:11:50;100056.84;;;33.32;34.67
71299;BME280;59083;47.974;21.722;2022-08-19T10:14:51;100056.16;;;33.35;34.72
71299;BME280;59083;47.974;21.722;2022-08-19T10:17:54;100056.59;;;33.00;34.89
71299;BME280;59083;47.974;21.722;2022-08-19T10:21:04;100053.16;;;32.91;34.43
71299;BME280;59083;47.974;21.722;2022-08-19T10:24:09;100051.75;;;33.09;33.80
71299;BME280;59083;47.974;21.722;2022-08-19T10:27:10;100047.59;;;33.15;34.20
71299;BME280;59083;47.974;21.722;2022-08-19T10:30:13;100042.78;;;33.37;33.43
71299;BME280;59083;47.974;21.722;2022-08-19T10:33:15;100038.88;;;33.38;32.84
71299;BME280;59083;47.974;21.722;2022-08-19T10:36:19;100043.69;;;33.16;33.22
71299;BME280;59083;47.974;21.722;2022-08-19T10:39:20;100044.88;;;33.03;33.21
71299;BME280;59083;47.974;21.722;2022-08-19T10:42:21;100027.13;;;33.16;32.76
71299;BME280;59083;47.974;21.722;2022-08-19T10:45:23;100033.13;;;33.06;33.26
71299;BME280;59083;47.974;21.722;2022-08-19T10:48:27;100030.59;;;33.01;33.36
71299;BME280;59083;47.974;21.722;2022-08-19T10:51:28;100024.63;;;33.24;32.87
71299;BME280;59083;47.974;21.722;2022-08-19T10:54:48;100019.53;;;33.13;31.74
71299;BME280;59083;47.974;21.722;2022-08-19T10:58:18;100013.44;;;33.08;32.10
71299;BME280;59083;47.974;21.722;2022-08-19T11:01:24;100006.87;;;33.00;33.30
71299;BME280;59083;47.974;21.722;2022-08-19T11:04:26;100007.13;;;33.19;33.49
71299;BME280;59083;47.974;21.722;2022-08-19T11:07:27;99991.44;;;33.36;32.55
71299;BME280;59083;47.974;21.722;2022-08-19T11:10:28;99996.88;;;33.08;33.50
71299;BME280;59083;47.974;21.722;2022-08-19T11:13:32;99993.31;;;33.32;33.56
71299;BME280;59083;47.974;21.722;2022-08-19T11:16:35;99980.75;;;33.22;33.70
71299;BME280;59083;47.974;21.722;2022-08-19T11:19:37;99988.22;;;33.34;32.33
71299;BME280;59083;47.974;21.722;2022-08-19T11:22:39;99989.31;;;33.45;32.08
71299;BME280;59083;47.974;21.722;2022-08-19T11:25:41;99996.00;;;33.44;32.99
71299;BME280;59083;47.974;21.722;2022-08-19T11:28:42;99979.34;;;33.16;34.08
71299;BME280;59083;47.974;21.722;2022-08-19T11:31:46;99975.34;;;33.26;34.08
71299;BME280;59083;47.974;21.722;2022-08-19T11:34:48;99973.75;;;33.00;34.49
71299;BME280;59083;47.974;21.722;2022-08-19T11:37:49;99970.81;;;33.33;34.30
71299;BME280;59083;47.974;21.722;2022-08-19T11:40:55;99964.28;;;33.13;34.23
71299;BME280;59083;47.974;21.722;2022-08-19T11:43:57;99960.97;;;32.96;34.16
71299;BME280;59083;47.974;21.722;2022-08-19T11:46:58;99963.16;;;32.90;34.42
71299;BME280;59083;47.974;21.722;2022-08-19T11:50:01;99953.03;;;33.18;34.73
71299;BME280;59083;47.974;21.722;2022-08-19T11:53:03;99956.94;;;33.17;34.95
71299;BME280;59083;47.974;21.722;2022-08-19T11:56:05;99963.59;;;33.04;35.29
71299;BME280;59083;47.974;21.722;2022-08-19T11:59:07;99955.13;;;32.97;35.52
71299;BME280;59083;47.974;21.722;2022-08-19T12:02:08;99953.03;;;33.18;34.87
71299;BME280;59083;47.974;21.722;2022-08-19T12:05:11;99947.72;;;33.01;34.55
71299;BME280;59083;47.974;21.722;2022-08-19T12:08:13;99948.22;;;32.91;34.58
71299;BME280;59083;47.974;21.722;2022-08-19T12:11:15;99954.41;;;33.00;34.25
71299;BME280;59083;47.974;21.722;2022-08-19T12:14:16;99943.59;;;33.07;33.92
71299;BME280;59083;47.974;21.722;2022-08-19T12:17:18;99941.63;;;33.08;33.96
71299;BME280;59083;47.974;21.722;2022-08-19T12:20:19;99945.44;;;33.03;33.93
71299;BME280;59083;47.974;21.722;2022-08-19T12:23:20;99950.03;;;32.99;33.80
71299;BME280;59083;47.974;21.722;2022-08-19T12:26:23;99947.50;;;32.94;33.77
71299;BME280;59083;47.974;21.722;2022-08-19T12:29:25;99944.50;;;32.99;33.41
71299;BME280;59083;47.974;21.722;2022-08-19T12:32:30;99949.03;;;32.92;33.21
71299;BME280;59083;47.974;21.722;2022-08-19T12:35:31;99942.44;;;32.96;33.08
71299;BME280;59083;47.974;21.722;2022-08-19T12:38:33;99936.69;;;32.89;33.39
71299;BME280;59083;47.974;21.722;2022-08-19T12:41:35;99931.38;;;33.08;33.38
71299;BME280;59083;47.974;21.722;2022-08-19T12:44:39;99931.97;;;33.02;33.15
71299;BME280;59083;47.974;21.722;2022-08-19T12:47:40;99927.34;;;33.06;33.25
71299;BME280;59083;47.974;21.722;2022-08-19T12:50:43;99918.97;;;32.90;33.68
71299;BME280;59083;47.974;21.722;2022-08-19T12:53:47;99915.84;;;33.04;33.48
71299;BME280;59083;47.974;21.722;2022-08-19T12:56:48;99919.78;;;33.03;32.75
71299;BME280;59083;47.974;21.722;2022-08-19T12:59:52;99918.50;;;33.00;31.77
71299;BME280;59083;47.974;21.722;2022-08-19T13:02:54;99913.19;;;33.07;32.29
71299;BME280;59083;47.974;21.722;2022-08-19T13:05:56;99902.25;;;33.11;32.02
71299;BME280;59083;47.974;21.722;2022-08-19T13:08:57;99908.09;;;33.21;31.60
71299;BME280;59083;47.974;21.722;2022-08-19T13:11:59;99898.91;;;33.05;31.35
71299;BME280;59083;47.974;21.722;2022-08-19T13:15:01;99894.50;;;33.16;31.55
71299;BME280;59083;47.974;21.722;2022-08-19T13:18:03;99897.06;;;33.09;31.69
71299;BME280;59083;47.974;21.722;2022-08-19T13:21:05;99898.91;;;33.05;31.52
71299;BME280;59083;47.974;21.722;2022-08-19T13:24:07;99888.78;;;33.09;31.23
71299;BME280;59083;47.974;21.722;2022-08-19T13:27:08;99895.09;;;33.10;31.18
71299;BME280;59083;47.974;21.722;2022-08-19T13:30:11;99885.81;;;33.02;31.17
71299;BME280;59083;47.974;21.722;2022-08-19T13:33:31;99892.25;;;33.06;30.83
71299;BME280;59083;47.974;21.722;2022-08-19T13:36:35;99882.91;;;33.11;30.81
71299;BME280;59083;47.974;21.722;2022-08-19T13:39:37;99876.22;;;33.12;30.65
71299;BME280;59083;47.974;21.722;2022-08-19T13:42:39;99872.19;;;33.21;30.55
71299;BME280;59083;47.974;21.722;2022-08-19T13:45:41;99872.91;;;33.06;30.76
71299;BME280;59083;47.974;21.722;2022-08-19T13:48:43;99870.63;;;33.08;31.32
71299;BME280;59083;47.974;21.722;2022-08-19T13:51:44;99869.69;;;33.04;31.77
71299;BME280;59083;47.974;21.722;2022-08-19T13:54:46;99873.63;;;33.03;31.68
71299;BME280;59083;47.974;21.722;2022-08-19T13:57:54;99868.69;;;32.97;31.42
71299;BME280;59083;47.974;21.722;2022-08-19T14:00:57;99872.69;;;32.99;31.05
71299;BME280;59083;47.974;21.722;2022-08-19T14:04:00;99872.34;;;33.01;31.50
71299;BME280;59083;47.974;21.722;2022-08-19T14:07:02;99860.25;;;33.05;31.96
71299;BME280;59083;47.974;21.722;2022-08-19T14:10:05;99875.75;;;33.10;32.16
71299;BME280;59083;47.974;21.722;2022-08-19T14:13:07;99875.53;;;33.15;31.19
71299;BME280;59083;47.974;21.722;2022-08-19T14:16:10;99868.09;;;33.03;31.48
71299;BME280;59083;47.974;21.722;2022-08-19T14:19:12;99877.63;;;33.06;31.80
71299;BME280;59083;47.974;21.722;2022-08-19T14:22:14;99872.59;;;32.96;32.18
71299;BME280;59083;47.974;21.722;2022-08-19T14:25:18;99877.91;;;32.89;32.62
71299;BME280;59083;47.974;21.722;2022-08-19T14:28:21;99874.09;;;32.93;31.96
71299;BME280;59083;47.974;21.722;2022-08-19T14:31:23;99865.63;;;32.86;31.43
71299;BME280;59083;47.974;21.722;2022-08-19T14:34:26;99868.16;;;32.79;30.87
71299;BME280;59083;47.974;21.722;2022-08-19T14:37:27;99867.25;;;32.75;31.48
71299;BME280;59083;47.974;21.722;2022-08-19T14:40:29;99863.69;;;32.74;31.76
71299;BME280;59083;47.974;21.722;2022-08-19T14:43:30;99859.16;;;32.82;32.13
71299;BME280;59083;47.974;21.722;2022-08-19T14:46:32;99872.94;;;32.94;32.17
71299;BME280;59083;47.974;21.722;2022-08-19T14:49:34;99863.75;;;32.90;31.94
71299;BME280;59083;47.974;21.722;2022-08-19T14:52:35;99858.22;;;32.90;31.52
71299;BME280;59083;47.974;21.722;2022-08-19T14:55:40;99857.66;;;32.85;31.58
71299;BME280;59083;47.974;21.722;2022-08-19T14:58:43;99850.78;;;32.78;31.61
71299;BME280;59083;47.974;21.722;2022-08-19T15:01:45;99852.28;;;32.76;31.75
71299;BME280;59083;47.974;21.722;2022-08-19T15:04:46;99843.78;;;32.69;32.01
71299;BME280;59083;47.974;21.722;2022-08-19T15:07:47;99851.59;;;32.67;32.07
71299;BME280;59083;47.974;21.722;2022-08-19T15:10:49;99852.41;;;32.67;31.97
71299;BME280;59083;47.974;21.722;2022-08-19T15:13:50;99841.03;;;32.69;31.58
71299;BME280;59083;47.974;21.722;2022-08-19T15:16:52;99834.25;;;32.66;31.94
71299;BME280;59083;47.974;21.722;2022-08-19T15:19:54;99838.63;;;32.67;31.77
71299;BME280;59083;47.974;21.722;2022-08-19T15:22:56;99832.94;;;32.64;30.97
71299;BME280;59083;47.974;21.722;2022-08-19T15:25:57;99832.28;;;32.67;30.89
71299;BME280;59083;47.974;21.722;2022-08-19T15:29:00;99837.47;;;32.56;31.07
71299;BME280;59083;47.974;21.722;2022-08-19T15:32:01;99838.84;;;32.50;31.15
71299;BME280;59083;47.974;21.722;2022-08-19T15:35:04;99834.69;;;32.56;30.82
71299;BME280;59083;47.974;21.722;2022-08-19T15:38:06;99832.97;;;32.52;30.92
71299;BME280;59083;47.974;21.722;2022-08-19T15:41:24;99835.63;;;32.48;30.85
71299;BME280;59083;47.974;21.722;2022-08-19T15:44:26;99834.37;;;32.46;31.01
71299;BME280;59083;47.974;21.722;2022-08-19T15:47:31;99827.69;;;32.47;30.98
71299;BME280;59083;47.974;21.722;2022-08-19T15:50:32;99828.16;;;32.36;31.45
71299;BME280;59083;47.974;21.722;2022-08-19T15:53:34;99830.72;;;32.29;31.80
71299;BME280;59083;47.974;21.722;2022-08-19T15:56:35;99813.91;;;32.34;31.36
71299;BME280;59083;47.974;21.722;2022-08-19T15:59:56;99818.72;;;32.25;31.67
71299;BME280;59083;47.974;21.722;2022-08-19T16:03:16;99821.50;;;32.13;32.10
71299;BME280;59083;47.974;21.722;2022-08-19T16:06:37;99811.41;;;32.17;32.08